Forside
METAR-TAF:

METAR-TAF

Lufthavne :

Gwadar, Pakistan

Breddekreds: 25-13-59N, længdekreds: 062-19-46E, højde: 29 m

METAR: fraværende

Tid: 23:06 (18:06 UTC)

Vejrudsigter

Denne rapport blev lavet for 2 timer og 6 minutter siden, kl. 16:00 UTC
Foreløbig gælder fra 03 på 18 UTC til 04 på 18 UTC
Vind 8 kt fra vest
Sigt: 3000 m
Spredte skyer i en højde af 3000 ft
røg
Midlertidig
fra 04 på 00 UTC til 04 på 04 UTC
Vind 5 kt fra vest
Sigt: 2000 m
Spredte skyer i en højde af 2000 ft
røg
Fra UTC
Vind 8 kt fra vestsydvest med vindstød på up til 18 kt
Sigt: 6000 m

TAF: OPGD 031600Z 0318/0418 26008KT 3000 FU SCT030 TEMPO 0400/0404 26005KT 2000 FU SCT020 FM 040600 24008G18KT 6000 NSC

Vejrobservationer og prognoser fra mere end 4000 lufthavne (METAR og TAF).

De gule og røde prikker repræsenterer de meteorologiske stationer.

Flyt musen over at se navnet på stationen.

Så klik over at se vejr observationer og prognoser.

At skifte det kort: Klik på de grønne knapper med et sort kors for at zoome ind; på den grønne knap med en bindestreg for at zoome ud; eller på de grønne pile for tilstødende kort.


METAR-TAF: